Главная страница
METAR-TAF:

METAR-TAF

Аэропорты :

Пудун

Шанхай-Пудун, Китай

широта: 31-07N, долгота: 121-46E, высота над уровнем моря: 4 м

Текущие метеонаблюдения

Эта сводка был подготовлена 23 минут назад, в 14:00 UTC
Ветер 14 Узел от северный
Температура 8°C
Влажность 61%
Давление 1026 hPa
Видимость 10 км и более
Нет облачности ниже 1500 м, и нет кучево-дождевой облачности

METAR: ZSPD 221400Z 36007MPS CAVOK 08/01 Q1026 NOSIG

Время: 22:23 (14:23 UTC)

Прогноз

Эта сводка был подготовлена 5 часа и 12 минут назад, в 09:11 UTC
Прогноз действительный с 22-го 12 UTC до 23-го 12 UTC
Ветер 10 Узел от северный
Видимость: 6000 м
Рассеянная облачность на высоте 1600 фута

TAF: ZSPD 220911Z 2212/2312 01005MPS 6000 BKN016 TX14/2306Z TN06/2221Z

Метеонаблюдения и прогнозы для более 4000 аэропортов (сводки METAR и TAF).

Имеющиеся станции представлены на карте желтыми и красными точками.

Чтобы увидеть название станции, наведите на нее мышь.

Затем щелкните, чтобы увидеть метеонаблюдения и метеопрогнозы.

Управление картой: чтобы увеличить масштаб, щелкните зеленые кнопки с черным крестиком; чтобы уменьшить масштаб, щелкните зеленую кнопку с тире; для просмотра соседних карт щелкайте зеленые стрелки.


METAR-TAF: